createdAt,value
2018-04-16T00:00:21.374Z,12.31
2018-04-16T00:05:23.851Z,12.28
2018-04-16T00:10:26.347Z,12.26
2018-04-16T00:15:28.854Z,12.17
2018-04-16T00:20:31.350Z,12.25
2018-04-16T00:25:33.801Z,12.13
2018-04-16T00:30:37.078Z,12.03
2018-04-16T00:35:45.705Z,11.97
2018-04-16T00:40:53.736Z,11.92
2018-04-16T00:46:01.719Z,11.84
2018-04-16T00:51:10.447Z,11.79
2018-04-16T00:56:18.957Z,11.67
2018-04-16T01:01:27.168Z,11.71
2018-04-16T01:06:35.305Z,11.59
2018-04-16T01:11:43.779Z,11.51
2018-04-16T01:16:51.930Z,11.51
2018-04-16T01:21:59.980Z,11.46
2018-04-16T01:27:08.460Z,11.49
2018-04-16T01:32:16.668Z,11.55
2018-04-16T01:37:24.768Z,11.52
2018-04-16T01:42:32.848Z,11.46
2018-04-16T01:47:41.046Z,11.53
2018-04-16T01:52:49.429Z,11.55
2018-04-16T01:57:58.496Z,11.53
2018-04-16T02:03:06.905Z,11.47
2018-04-16T02:08:15.644Z,11.46
2018-04-16T02:13:23.652Z,11.54
2018-04-16T02:18:31.790Z,11.62
2018-04-16T02:23:39.813Z,11.71
2018-04-16T02:28:48.012Z,11.67
2018-04-16T02:33:56.271Z,11.67
2018-04-16T02:39:04.550Z,11.71
2018-04-16T02:44:12.739Z,11.51
2018-04-16T02:49:20.758Z,11.51
2018-04-16T02:54:28.794Z,11.34
2018-04-16T02:59:36.803Z,11.34
2018-04-16T03:04:45.029Z,11.45
2018-04-16T03:09:52.980Z,11.32
2018-04-16T03:15:01.011Z,11.47
2018-04-16T03:20:09.181Z,11.33
2018-04-16T03:25:17.159Z,11.30
2018-04-16T03:30:25.295Z,11.32
2018-04-16T03:35:33.469Z,11.33
2018-04-16T03:40:41.825Z,11.32
2018-04-16T03:46:03.389Z,11.30
2018-04-16T03:51:21.569Z,11.30
2018-04-16T03:56:25.080Z,11.34
2018-04-16T04:01:27.575Z,11.45
2018-04-16T04:06:30.074Z,11.24
2018-04-16T04:11:32.565Z,11.10
2018-04-16T04:16:37.863Z,11.10
2018-04-16T04:21:44.097Z,11.10
2018-04-16T04:26:58.203Z,11.07
2018-04-16T04:32:00.976Z,11.10
2018-04-16T04:37:03.464Z,10.89
2018-04-16T04:42:12.935Z,10.89
2018-04-16T04:47:15.967Z,10.87
2018-04-16T04:52:18.462Z,11.00
2018-04-16T04:57:20.985Z,11.00
2018-04-16T05:02:23.462Z,10.96
2018-04-16T05:07:25.971Z,10.91
2018-04-16T05:12:28.455Z,10.84
2018-04-16T05:17:31.952Z,10.87
2018-04-16T05:22:35.280Z,10.78
2018-04-16T05:27:39.125Z,10.87
2018-04-16T05:32:41.648Z,10.80
2018-04-16T05:37:45.500Z,10.88
2018-04-16T05:42:48.041Z,10.82
2018-04-16T05:47:50.514Z,10.88
2018-04-16T05:52:52.982Z,10.98
2018-04-16T05:57:55.620Z,11.16
2018-04-16T06:02:58.140Z,11.25
2018-04-16T06:08:00.616Z,11.34
2018-04-16T06:13:03.139Z,11.44
2018-04-16T06:18:05.728Z,11.58
2018-04-16T06:23:08.425Z,11.77
2018-04-16T06:28:11.194Z,11.64
2018-04-16T06:33:13.848Z,11.76
2018-04-16T06:38:16.384Z,11.84
2018-04-16T06:43:23.427Z,11.65
2018-04-16T06:48:26.005Z,11.63
2018-04-16T06:53:28.847Z,11.59
2018-04-16T06:58:31.476Z,11.63
2018-04-16T07:03:34.930Z,11.76
2018-04-16T07:08:37.687Z,11.85
2018-04-16T07:13:40.466Z,11.91
2018-04-16T07:18:42.963Z,12.10
2018-04-16T07:23:45.549Z,12.30
2018-04-16T07:28:48.110Z,12.07
2018-04-16T07:33:50.671Z,11.75
2018-04-16T07:38:53.167Z,12.07
2018-04-16T07:43:55.642Z,11.99
2018-04-16T07:48:58.211Z,12.01
2018-04-16T07:54:00.706Z,12.06
2018-04-16T07:59:03.220Z,12.15
2018-04-16T08:04:05.802Z,11.88
2018-04-16T08:09:08.395Z,12.23
2018-04-16T08:14:10.909Z,12.12
2018-04-16T08:19:13.446Z,12.38
2018-04-16T08:24:15.931Z,12.34
2018-04-16T08:29:18.419Z,12.52
2018-04-16T08:34:20.924Z,12.72
2018-04-16T08:39:23.413Z,12.89
2018-04-16T08:44:25.915Z,13.02
2018-04-16T08:49:28.403Z,12.96
2018-04-16T08:54:32.364Z,13.72
2018-04-16T08:59:34.895Z,13.53
2018-04-16T09:04:37.406Z,13.77
2018-04-16T09:09:39.954Z,14.15
2018-04-16T09:14:43.435Z,13.78
2018-04-16T09:19:45.901Z,13.92
2018-04-16T09:24:48.566Z,14.23
2018-04-16T09:29:51.109Z,14.40
2018-04-16T09:34:53.611Z,15.14
2018-04-16T09:39:56.156Z,15.11
2018-04-16T09:44:58.667Z,15.48
2018-04-16T09:50:01.183Z,15.48
2018-04-16T09:55:03.652Z,15.46
2018-04-16T10:00:06.360Z,15.63
2018-04-16T10:05:09.406Z,15.75
2018-04-16T10:10:11.976Z,16.09
2018-04-16T10:15:14.454Z,16.52
2018-04-16T10:20:16.951Z,16.67
2018-04-16T10:25:19.479Z,16.57
2018-04-16T10:30:21.942Z,17.20
2018-04-16T10:35:24.442Z,17.13
2018-04-16T10:40:27.017Z,17.87
2018-04-16T10:45:29.508Z,18.36
2018-04-16T10:50:32.012Z,17.86
2018-04-16T10:55:35.905Z,18.63
2018-04-16T11:00:38.489Z,18.23
2018-04-16T11:05:41.003Z,18.96
2018-04-16T11:10:45.065Z,19.46
2018-04-16T11:15:47.537Z,20.50
2018-04-16T11:20:50.025Z,19.79
2018-04-16T11:25:52.493Z,19.39
2018-04-16T11:30:54.986Z,18.62
2018-04-16T11:35:57.467Z,19.13
2018-04-16T11:40:59.953Z,18.09
2018-04-16T11:46:02.437Z,18.04
2018-04-16T11:51:05.007Z,17.69
2018-04-16T11:56:07.547Z,17.73
2018-04-16T12:01:10.105Z,16.75
2018-04-16T12:06:12.666Z,17.16
2018-04-16T12:11:15.147Z,17.23
2018-04-16T12:16:17.646Z,17.21
2018-04-16T12:21:20.180Z,17.55
2018-04-16T12:26:22.634Z,17.11
2018-04-16T12:31:25.128Z,17.16
2018-04-16T12:36:27.590Z,16.87
2018-04-16T12:41:30.137Z,16.35
2018-04-16T12:46:32.608Z,16.74
2018-04-16T12:51:35.137Z,16.81
2018-04-16T12:56:37.705Z,16.92
2018-04-16T13:01:40.247Z,17.23
2018-04-16T13:06:42.798Z,17.45
2018-04-16T13:11:45.297Z,17.69
2018-04-16T13:16:47.796Z,17.35
2018-04-16T13:21:50.255Z,17.02
2018-04-16T13:26:52.725Z,17.02
2018-04-16T13:31:55.229Z,17.13
2018-04-16T13:36:57.712Z,16.51
2018-04-16T13:42:00.199Z,16.41
2018-04-16T13:47:02.709Z,16.05
2018-04-16T13:52:08.148Z,16.15
2018-04-16T13:57:10.645Z,15.61
2018-04-16T14:02:13.156Z,15.75
2018-04-16T14:07:15.652Z,15.53
2018-04-16T14:12:18.122Z,15.67
2018-04-16T14:17:20.706Z,15.56
2018-04-16T14:22:24.318Z,15.35
2018-04-16T14:27:27.785Z,15.13
2018-04-16T14:32:30.265Z,14.91
2018-04-16T14:37:32.724Z,15.09
2018-04-16T14:42:36.087Z,15.03
2018-04-16T14:47:38.606Z,15.13
2018-04-16T14:52:41.093Z,14.85
2018-04-16T14:57:43.551Z,14.75
2018-04-16T15:02:46.034Z,14.89
2018-04-16T15:07:48.507Z,14.99
2018-04-16T15:12:50.989Z,15.09
2018-04-16T15:17:53.453Z,15.07
2018-04-16T15:22:56.902Z,15.01
2018-04-16T15:27:59.439Z,14.86
2018-04-16T15:33:01.915Z,14.88
2018-04-16T15:38:04.562Z,14.87
2018-04-16T15:43:07.168Z,14.83
2018-04-16T15:48:09.707Z,14.76
2018-04-16T15:53:12.257Z,14.75
2018-04-16T15:58:14.723Z,14.69
2018-04-16T16:03:17.228Z,14.73
2018-04-16T16:08:19.731Z,14.66
2018-04-16T16:13:22.236Z,14.70
2018-04-16T16:18:24.750Z,14.76
2018-04-16T16:23:27.306Z,14.69
2018-04-16T16:28:29.800Z,14.61
2018-04-16T16:33:32.408Z,14.54
2018-04-16T16:38:34.941Z,14.57
2018-04-16T16:43:37.595Z,14.53
2018-04-16T16:48:40.136Z,14.57
2018-04-16T16:53:42.647Z,14.48
2018-04-16T16:58:45.235Z,14.40
2018-04-16T17:03:47.794Z,14.39
2018-04-16T17:08:50.304Z,14.33
2018-04-16T17:13:52.780Z,14.34
2018-04-16T17:18:55.231Z,14.41
2018-04-16T17:23:59.254Z,14.27
2018-04-16T17:29:01.740Z,14.19
2018-04-16T17:34:04.872Z,14.08
2018-04-16T17:39:07.511Z,13.98
2018-04-16T17:44:11.865Z,13.98
2018-04-16T17:49:14.668Z,13.99
2018-04-16T17:54:17.167Z,13.86
2018-04-16T17:59:19.639Z,13.78
2018-04-16T18:04:22.201Z,13.80
2018-04-16T18:09:24.856Z,13.70
2018-04-16T18:14:27.324Z,13.65
2018-04-16T18:19:29.817Z,13.54
2018-04-16T18:24:32.296Z,13.52
2018-04-16T18:29:35.235Z,13.50
2018-04-16T18:34:38.483Z,13.47
2018-04-16T18:39:41.322Z,13.45
2018-04-16T18:44:44.206Z,13.36
2018-04-16T18:49:46.771Z,13.34
2018-04-16T18:54:49.597Z,13.31
2018-04-16T18:59:52.093Z,13.51
2018-04-16T19:04:54.592Z,13.59
2018-04-16T19:09:58.244Z,13.69
2018-04-16T19:15:01.399Z,13.72
2018-04-16T19:20:04.705Z,13.71
2018-04-16T19:25:07.455Z,13.70
2018-04-16T19:30:10.017Z,13.87
2018-04-16T19:35:12.613Z,13.68
2018-04-16T19:40:15.141Z,13.52
2018-04-16T19:45:18.073Z,13.40
2018-04-16T19:50:20.553Z,13.29
2018-04-16T19:55:23.066Z,13.19
2018-04-16T20:00:25.598Z,13.16
2018-04-16T20:05:28.777Z,13.08
2018-04-16T20:10:32.377Z,13.04
2018-04-16T20:15:35.361Z,12.95
2018-04-16T20:20:39.175Z,12.91
2018-04-16T20:25:45.653Z,12.87
2018-04-16T20:30:48.479Z,12.86
2018-04-16T20:35:51.450Z,12.81
2018-04-16T20:40:54.071Z,12.81
2018-04-16T20:45:56.578Z,12.85
2018-04-16T20:50:59.110Z,12.89
2018-04-16T20:56:01.604Z,12.79
2018-04-16T21:01:04.126Z,12.68
2018-04-16T21:06:06.927Z,12.54
2018-04-16T21:11:09.678Z,12.49
2018-04-16T21:16:12.343Z,12.36
2018-04-16T21:21:15.073Z,12.21
2018-04-16T21:26:17.668Z,11.94
2018-04-16T21:31:20.192Z,11.84
2018-04-16T21:36:22.693Z,11.86
2018-04-16T21:41:25.165Z,11.92
2018-04-16T21:46:27.637Z,11.75
2018-04-16T21:51:30.123Z,11.58
2018-04-16T21:56:32.621Z,11.46
2018-04-16T22:01:35.814Z,11.47
2018-04-16T22:06:38.548Z,11.34
2018-04-16T22:11:41.216Z,11.32
2018-04-16T22:16:43.770Z,11.35
2018-04-16T22:21:46.264Z,11.39
2018-04-16T22:26:48.743Z,11.36
2018-04-16T22:31:51.315Z,11.31
2018-04-16T22:36:53.789Z,11.32
2018-04-16T22:41:56.270Z,11.29
2018-04-16T22:46:59.616Z,11.21
2018-04-16T22:52:02.077Z,11.21
2018-04-16T22:57:04.640Z,11.21
2018-04-16T23:02:07.213Z,11.16
2018-04-16T23:07:10.433Z,11.23
2018-04-16T23:12:13.001Z,11.23
2018-04-16T23:17:15.495Z,11.30
2018-04-16T23:22:18.014Z,11.38
2018-04-16T23:27:20.504Z,11.36
2018-04-16T23:32:23.288Z,11.36
2018-04-16T23:37:25.788Z,11.36
2018-04-16T23:42:28.254Z,11.33
2018-04-16T23:47:30.759Z,11.37
2018-04-16T23:52:33.474Z,11.29
2018-04-16T23:57:36.021Z,11.07
